Time;durP1;ratioP1;P1;durP2;ratioP2;P2;SDS_P1;SDS_P2;PMS_P1;PMS_P2;Temp;Humidity;BMP_temperature;BMP_pressure;BME280_temperature;BME280_humidity;BME280_pressure;Samples;Min_cycle;Max_cycle;Signal;HPM_P1;HPM_P2
2023/04/04 00:02:21;;;;;;;5.97;3.65;;;;;;;4.18;38.76;100057.87;7630261;32;39069;-83
2023/04/04 00:06:43;;;;;;;5.03;3.28;;;;;;;4.14;37.06;100050.22;7630797;32;40898;-82
2023/04/04 00:11:00;;;;;;;7.15;3.50;;;;;;;4.31;36.45;100055.03;7630444;32;37871;-82
2023/04/04 00:15:16;;;;;;;5.35;3.87;;;;;;;4.00;37.21;100062.19;7629425;32;38030;-82
2023/04/04 00:19:32;;;;;;;8.05;3.90;;;;;;;4.11;37.05;100056.06;7632377;32;40211;-81
2023/04/04 00:23:48;;;;;;;4.85;3.53;;;;;;;3.86;37.42;100057.94;7656664;32;39955;-82
2023/04/04 00:28:05;;;;;;;4.65;3.53;;;;;;;3.91;37.53;100056.22;7656479;32;38544;-81
2023/04/04 00:32:21;;;;;;;6.78;3.90;;;;;;;4.05;37.88;100058.81;7656452;32;37793;-82
2023/04/04 00:36:38;;;;;;;6.28;3.70;;;;;;;4.01;37.92;100055.75;7656328;32;40297;-83
2023/04/04 00:40:55;;;;;;;6.20;3.72;;;;;;;4.19;38.15;100064.91;7656167;32;40811;-81
2023/04/04 00:45:11;;;;;;;6.75;4.18;;;;;;;3.93;38.37;100062.25;7653568;32;37941;-82
2023/04/04 00:49:27;;;;;;;6.18;4.00;;;;;;;4.22;45.08;100056.38;7654807;32;37257;-82
2023/04/04 00:53:47;;;;;;;6.00;3.70;;;;;;;4.16;40.61;100066.19;7642242;32;39419;-82
2023/04/04 00:58:04;;;;;;;5.05;3.83;;;;;;;4.22;40.20;100069.88;7655745;32;39969;-82
2023/04/04 01:02:20;;;;;;;6.75;4.00;;;;;;;4.26;40.25;100068.34;7655643;32;37902;-82
2023/04/04 01:06:37;;;;;;;5.45;4.00;;;;;;;4.22;40.92;100069.88;7655553;32;37701;-82
2023/04/04 01:10:53;;;;;;;8.02;4.22;;;;;;;4.21;40.54;100060.09;7647091;32;40128;-80
2023/04/04 01:15:10;;;;;;;8.93;4.53;;;;;;;3.79;42.45;100055.31;7648982;32;39928;-82
2023/04/04 01:19:32;;;;;;;6.40;4.32;;;;;;;3.95;42.47;100062.03;7635971;32;38742;-82
2023/04/04 01:23:58;;;;;;;7.45;4.43;;;;;;;4.04;43.10;100059.88;7631745;32;37371;-82
2023/04/04 01:28:14;;;;;;;6.18;4.10;;;;;;;3.86;44.04;100047.97;7632903;32;39355;-82
2023/04/04 01:32:41;;;;;;;5.18;4.18;;;;;;;3.85;43.13;100046.34;7632789;32;39752;-81
2023/04/04 01:37:07;;;;;;;10.40;3.92;;;;;;;3.99;43.17;100043.53;7631459;32;37845;-81
2023/04/04 01:41:25;;;;;;;7.35;4.05;;;;;;;3.97;42.69;100043.75;7631424;32;38237;-82
2023/04/04 01:45:41;;;;;;;5.82;3.75;;;;;;;3.84;42.60;100030.37;7631400;32;39305;-81
2023/04/04 01:49:57;;;;;;;7.87;4.53;;;;;;;4.17;42.23;100034.63;7655704;32;40787;-81
2023/04/04 01:54:14;;;;;;;5.03;3.95;;;;;;;4.04;42.55;100022.94;7645619;32;38776;-80
2023/04/04 01:58:30;;;;;;;6.68;3.80;;;;;;;4.02;42.83;100025.03;7632496;32;37021;-81
2023/04/04 02:02:46;;;;;;;6.50;4.18;;;;;;;3.69;42.57;100009.97;7633453;32;39172;-82
2023/04/04 02:07:03;;;;;;;7.45;3.95;;;;;;;3.79;41.92;99998.66;7658502;32;39998;-82
2023/04/04 02:11:21;;;;;;;4.43;3.85;;;;;;;3.85;41.59;99989.72;7658127;32;38166;-82
2023/04/04 02:15:38;;;;;;;5.72;3.92;;;;;;;3.81;41.14;99975.03;7658587;32;36989;-83
2023/04/04 02:19:55;;;;;;;7.60;3.95;;;;;;;3.89;41.44;99974.72;7658405;32;39578;-82
2023/04/04 02:24:11;;;;;;;8.75;4.10;;;;;;;3.71;42.19;99978.22;7657837;32;40778;-82
2023/04/04 02:28:30;;;;;;;7.03;4.03;;;;;;;3.73;42.12;99967.22;7658129;32;38770;-81
2023/04/04 02:32:47;;;;;;;7.50;4.12;;;;;;;3.62;42.04;99960.66;7658416;32;37088;-81
2023/04/04 02:37:04;;;;;;;8.98;4.20;;;;;;;3.39;41.38;99959.41;7632179;32;39274;-82
2023/04/04 02:41:21;;;;;;;6.22;3.83;;;;;;;3.35;40.55;99952.00;7645596;32;39786;-81
2023/04/04 02:45:37;;;;;;;4.43;3.65;;;;;;;3.44;40.00;99947.16;7658106;32;37868;-81
2023/04/04 02:49:53;;;;;;;4.78;3.62;;;;;;;3.42;40.57;99949.25;7657983;32;37803;-81
2023/04/04 02:54:10;;;;;;;7.62;4.07;;;;;;;3.42;40.91;99933.91;7658099;32;40183;-81
2023/04/04 02:58:26;;;;;;;6.35;4.03;;;;;;;3.41;41.38;99936.81;7657983;32;41248;-81
2023/04/04 03:02:43;;;;;;;8.82;4.40;;;;;;;3.50;41.17;99933.63;7655880;32;38435;-81
2023/04/04 03:06:59;;;;;;;5.53;3.50;;;;;;;3.33;41.52;99924.47;7631613;32;38115;-79
2023/04/04 03:11:21;;;;;;;6.10;4.22;;;;;;;3.19;43.47;99929.97;7631551;32;39333;-82
2023/04/04 03:15:39;;;;;;;8.55;4.35;;;;;;;3.22;45.20;99931.38;7631540;32;41641;-82
2023/04/04 03:19:55;;;;;;;8.05;4.30;;;;;;;3.00;45.93;99931.75;7631478;32;36862;-82
2023/04/04 03:24:12;;;;;;;5.35;4.00;;;;;;;3.17;45.88;99936.59;7639344;32;37488;-82
2023/04/04 03:28:28;;;;;;;5.75;3.80;;;;;;;3.15;46.00;99938.69;7657563;32;40188;-82
2023/04/04 03:32:44;;;;;;;7.10;3.90;;;;;;;3.03;46.29;99935.88;7657624;32;41163;-82
2023/04/04 03:37:01;;;;;;;5.85;4.30;;;;;;;3.06;45.08;99940.00;7656489;32;37832;-82
2023/04/04 03:41:17;;;;;;;7.65;4.90;;;;;;;3.05;44.33;99943.75;7657581;32;36862;-81
2023/04/04 03:45:37;;;;;;;9.55;5.12;;;;;;;2.75;45.19;99938.97;7657447;32;39571;-81
2023/04/04 03:49:54;;;;;;;10.88;4.65;;;;;;;2.93;45.07;99947.16;7657271;32;40012;-81
2023/04/04 03:54:11;;;;;;;7.35;4.55;;;;;;;2.86;46.25;99945.53;7656948;32;37640;-81
2023/04/04 03:58:29;;;;;;;12.05;4.40;;;;;;;2.66;47.33;99945.63;7657240;32;37799;-82
2023/04/04 04:02:45;;;;;;;7.97;4.93;;;;;;;2.62;47.52;99956.88;7653483;32;39279;-82
2023/04/04 04:07:01;;;;;;;6.62;4.62;;;;;;;2.84;47.04;99959.19;7641646;32;40001;-83
2023/04/04 04:11:18;;;;;;;7.43;4.55;;;;;;;2.66;47.46;99967.19;7656650;32;38668;-82
2023/04/04 04:15:34;;;;;;;8.90;4.62;;;;;;;2.65;47.83;99960.16;7643348;32;37018;-82
2023/04/04 04:19:50;;;;;;;7.18;4.60;;;;;;;2.62;47.84;99961.41;7657075;32;38913;-81
2023/04/04 04:24:07;;;;;;;10.15;5.35;;;;;;;2.65;48.15;99968.22;7656711;32;41056;-80
2023/04/04 04:28:23;;;;;;;9.95;5.10;;;;;;;2.68;48.32;99963.25;7656287;32;38579;-81
2023/04/04 04:32:52;;;;;;;12.20;5.40;;;;;;;2.53;48.85;99965.38;7656561;32;37097;-81
2023/04/04 04:37:08;;;;;;;6.80;4.80;;;;;;;2.57;49.04;99972.84;7645497;32;39656;-82
2023/04/04 04:41:25;;;;;;;8.80;4.95;;;;;;;2.49;49.54;99966.88;7629949;32;40660;-81
2023/04/04 04:45:41;;;;;;;8.82;4.87;;;;;;;2.53;49.18;99968.09;7630617;32;38569;-82
2023/04/04 04:49:58;;;;;;;7.87;5.10;;;;;;;2.41;48.06;99971.44;7651917;32;37214;-82
2023/04/04 04:54:14;;;;;;;6.87;4.60;;;;;;;2.55;46.11;99983.00;7659527;32;39392;-81
2023/04/04 04:58:31;;;;;;;11.25;5.65;;;;;;;1.80;46.58;99978.03;7659422;32;41251;-82
2023/04/04 05:02:47;;;;;;;6.18;4.35;;;;;;;2.11;46.34;99981.09;7648050;32;37782;-80
2023/04/04 05:07:03;;;;;;;10.27;4.80;;;;;;;1.80;45.59;99980.72;7606988;32;37894;-82
2023/04/04 05:11:20;;;;;;;9.88;5.20;;;;;;;1.54;45.80;99976.22;7606527;32;39631;-82
2023/04/04 05:15:36;;;;;;;10.18;5.20;;;;;;;1.95;44.91;99975.12;7606791;32;39988;-81
2023/04/04 05:19:53;;;;;;;11.82;4.78;;;;;;;2.27;44.45;99971.72;7624267;32;37868;-82
2023/04/04 05:24:09;;;;;;;9.95;4.97;;;;;;;1.96;45.11;99970.56;7632820;32;37065;-82
2023/04/04 05:28:25;;;;;;;6.60;4.57;;;;;;;2.11;44.76;99968.47;7632617;32;39417;-82
2023/04/04 05:32:44;;;;;;;10.15;4.72;;;;;;;2.42;45.10;99965.03;7632724;32;40858;-81
2023/04/04 05:37:00;;;;;;;8.38;5.07;;;;;;;2.20;46.26;99964.47;7652946;32;37985;-80
2023/04/04 05:41:16;;;;;;;9.82;5.15;;;;;;;2.69;45.16;99966.75;7658926;32;36846;-81
2023/04/04 05:45:31;;;;;;;9.50;5.20;;;;;;;2.61;45.98;99965.97;7659750;32;20090;-81
2023/04/04 05:49:48;;;;;;;10.70;5.72;;;;;;;2.81;45.85;99955.09;7658694;32;40060;-82
2023/04/04 05:54:06;;;;;;;14.05;6.22;;;;;;;2.89;44.08;99959.38;7658562;32;36811;-82
2023/04/04 05:58:22;;;;;;;11.12;6.18;;;;;;;2.76;43.68;99959.44;7657912;32;38575;-81
2023/04/04 06:02:38;;;;;;;10.27;6.00;;;;;;;3.01;43.78;99960.31;7652355;32;39935;-82
2023/04/04 06:06:55;;;;;;;10.00;5.95;;;;;;;3.16;44.06;99962.72;7632213;32;40811;-81
2023/04/04 06:11:13;;;;;;;10.40;5.10;;;;;;;3.42;43.35;99970.81;7632022;32;36727;-82
2023/04/04 06:15:30;;;;;;;8.35;4.87;;;;;;;3.69;43.05;99972.22;7632198;32;38300;-83
2023/04/04 06:19:46;;;;;;;11.57;6.12;;;;;;;3.79;42.32;99981.69;7632333;32;39324;-82
2023/04/04 06:24:02;;;;;;;9.40;5.87;;;;;;;3.86;42.17;99982.44;7632098;32;40762;-82
2023/04/04 06:28:18;;;;;;;10.15;5.70;;;;;;;4.10;42.88;99980.72;7650463;32;37729;-82
2023/04/04 06:32:35;;;;;;;6.72;4.53;;;;;;;3.95;43.02;99981.13;7658308;32;37778;-82
2023/04/04 06:36:51;;;;;;;9.93;4.95;;;;;;;3.64;42.49;99974.78;7657856;32;39688;-82
2023/04/04 06:41:07;;;;;;;6.80;4.70;;;;;;;4.17;42.35;99976.06;7658077;32;40012;-79
2023/04/04 06:45:25;;;;;;;12.50;4.82;;;;;;;3.99;47.13;99982.31;7643972;32;37957;-81
2023/04/04 06:49:42;;;;;;;7.55;4.60;;;;;;;4.46;42.11;99982.59;7639937;32;36966;-82
2023/04/04 06:53:59;;;;;;;10.52;4.37;;;;;;;4.27;41.33;99979.06;7658086;32;40176;-81
2023/04/04 06:58:16;;;;;;;6.75;4.82;;;;;;;3.95;40.63;99975.72;7657748;32;41756;-83
2023/04/04 07:02:32;;;;;;;8.60;5.12;;;;;;;4.44;40.58;99965.78;7650853;32;37895;-83
2023/04/04 07:06:49;;;;;;;9.23;4.62;;;;;;;4.87;41.22;99962.09;7631715;32;36871;-82
2023/04/04 07:11:06;;;;;;;8.30;4.70;;;;;;;4.81;38.07;99936.03;7631273;32;39249;-82
2023/04/04 07:15:23;;;;;;;6.12;3.60;;;;;;;5.18;38.07;99919.63;7653405;32;39711;-79
2023/04/04 07:19:39;;;;;;;5.93;3.80;;;;;;;5.24;41.04;99926.84;7657717;32;37781;-82
2023/04/04 07:23:55;;;;;;;11.15;4.00;;;;;;;5.78;37.48;99923.19;7657756;32;37321;-82
2023/04/04 07:28:11;;;;;;;5.50;3.62;;;;;;;6.22;39.35;99915.47;7657644;32;39381;-84
2023/04/04 07:32:28;;;;;;;6.03;3.60;;;;;;;7.00;35.06;99923.13;7652617;32;39887;-83
2023/04/04 07:36:44;;;;;;;8.50;3.60;;;;;;;6.88;32.88;99920.50;7631385;32;37880;-81
2023/04/04 07:41:01;;;;;;;7.22;3.60;;;;;;;6.72;32.92;99922.94;7653768;32;37401;-83
2023/04/04 07:45:20;;;;;;;7.53;3.42;;;;;;;6.98;32.24;99920.66;7657661;32;38827;-81
2023/04/04 07:49:37;;;;;;;6.32;3.20;;;;;;;6.98;33.11;99919.84;7657324;32;39655;-83
2023/04/04 07:53:54;;;;;;;5.00;3.17;;;;;;;6.51;32.09;99932.56;7639576;32;37718;-83
2023/04/04 07:58:10;;;;;;;5.22;3.40;;;;;;;7.26;31.72;99936.06;7635921;32;37132;-83
2023/04/04 08:02:27;;;;;;;6.40;3.60;;;;;;;6.16;34.79;99941.63;7618515;32;39009;-82
2023/04/04 08:06:45;;;;;;;5.82;3.35;;;;;;;6.94;31.94;99924.94;7607855;32;39962;-83
2023/04/04 08:11:01;;;;;;;6.75;3.28;;;;;;;7.23;31.00;99919.47;7630098;32;37878;-83
2023/04/04 08:15:18;;;;;;;7.45;3.78;;;;;;;7.25;30.03;99922.75;7617805;32;37306;-84
2023/04/04 08:19:34;;;;;;;6.90;3.75;;;;;;;7.25;31.57;99909.19;7616539;32;40017;-83
2023/04/04 08:23:50;;;;;;;6.60;3.47;;;;;;;7.51;30.61;99919.34;7614006;32;40054;-83
2023/04/04 08:28:06;;;;;;;4.22;3.03;;;;;;;7.55;31.17;99918.88;7613038;32;38516;-84
2023/04/04 08:32:23;;;;;;;4.72;3.08;;;;;;;8.10;31.14;99918.00;7612143;32;36805;-83
2023/04/04 08:36:40;;;;;;;5.90;3.20;;;;;;;8.25;28.65;99920.91;7621331;32;39426;-84
2023/04/04 08:40:57;;;;;;;6.10;3.17;;;;;;;8.31;27.92;99901.94;7649508;32;39718;-80
2023/04/04 08:45:18;;;;;;;4.85;2.55;;;;;;;8.68;28.75;99893.16;7629794;32;37867;-82
2023/04/04 08:49:42;;;;;;;4.97;2.72;;;;;;;8.99;28.16;99894.25;7629180;32;37225;-81
2023/04/04 08:54:00;;;;;;;5.93;3.10;;;;;;;9.64;29.41;99895.00;7616012;32;39117;-81
2023/04/04 08:58:16;;;;;;;3.97;2.45;;;;;;;9.62;26.56;99905.31;7633258;32;40764;-81
2023/04/04 09:02:49;;;;;;;4.35;2.70;;;;;;;10.28;25.35;99898.59;7629401;32;37607;-79
2023/04/04 09:07:05;;;;;;;6.50;2.92;;;;;;;10.21;25.38;99881.63;7630820;32;37092;-79
2023/04/04 09:11:22;;;;;;;5.40;2.83;;;;;;;9.99;27.12;99885.38;7655196;32;39656;-79
2023/04/04 09:15:40;;;;;;;6.40;3.42;;;;;;;10.03;27.47;99881.03;7655455;32;39971;-79
2023/04/04 09:20:01;;;;;;;9.25;3.58;;;;;;;10.23;27.01;99884.94;7653423;32;38622;-79
2023/04/04 09:24:18;;;;;;;5.57;2.60;;;;;;;10.46;26.81;99881.75;7653916;32;38704;-79
2023/04/04 09:28:34;;;;;;;7.25;3.12;;;;;;;11.02;26.03;99872.00;7654596;32;39342;-79
2023/04/04 09:32:52;;;;;;;3.72;2.53;;;;;;;11.14;26.11;99878.03;7654936;32;39351;-79
2023/04/04 09:37:09;;;;;;;4.55;2.75;;;;;;;11.10;23.61;99863.28;7656517;32;39169;-82
2023/04/04 09:41:26;;;;;;;6.43;2.90;;;;;;;11.11;25.45;99867.66;7649340;32;37148;-79
2023/04/04 09:45:44;;;;;;;6.87;3.10;;;;;;;10.98;25.88;99860.00;7621426;32;40165;-79
2023/04/04 09:50:06;;;;;;;6.53;3.15;;;;;;;10.83;26.32;99850.75;7638536;32;40286;-78
2023/04/04 09:54:23;;;;;;;5.03;2.83;;;;;;;10.41;26.40;99859.13;7632494;32;38842;-79
2023/04/04 09:58:49;;;;;;;9.00;3.45;;;;;;;10.62;26.23;99846.34;7632049;32;37125;-79
2023/04/04 10:03:21;;;;;;;6.20;2.60;;;;;;;10.97;25.05;99852.91;7631394;32;37878;-79
2023/04/04 10:07:39;;;;;;;4.12;2.50;;;;;;;11.20;24.69;99832.44;7638443;32;39977;-79
2023/04/04 10:12:22;;;;;;;4.37;2.80;;;;;;;11.83;24.10;99819.19;7647699;32;38706;-80
2023/04/04 10:16:45;;;;;;;4.10;2.30;;;;;;;11.91;24.83;99830.66;7642210;32;38019;-80
2023/04/04 10:21:07;;;;;;;4.18;2.28;;;;;;;12.34;22.21;99818.13;7656306;32;39304;-79
2023/04/04 10:25:26;;;;;;;3.65;2.25;;;;;;;12.10;21.35;99811.72;7658330;32;39323;-80
2023/04/04 10:29:43;;;;;;;3.47;2.10;;;;;;;12.19;22.81;99804.53;7634108;32;38204;-80
2023/04/04 10:34:27;;;;;;;4.28;2.60;;;;;;;12.38;23.09;99804.69;7645859;32;37973;-81
2023/04/04 10:38:47;;;;;;;5.75;2.97;;;;;;;13.14;22.11;99796.97;7647011;32;39291;-82
2023/04/04 10:43:08;;;;;;;8.57;3.00;;;;;;;13.45;22.15;99813.97;7630349;32;39961;-83
2023/04/04 10:47:25;;;;;;;3.08;1.90;;;;;;;13.37;21.42;99795.41;7630679;32;38679;-81
2023/04/04 10:51:42;;;;;;;4.70;2.20;;;;;;;13.98;21.02;99793.06;7631425;32;37087;-82
2023/04/04 10:56:11;;;;;;;3.67;2.10;;;;;;;14.31;20.70;99798.62;7628300;32;40124;-83
2023/04/04 11:00:28;;;;;;;3.87;2.22;;;;;;;13.84;18.91;99788.28;7617145;32;40690;-83
2023/04/04 11:04:45;;;;;;;4.30;2.50;;;;;;;14.05;20.68;99783.34;7647255;32;37693;-86
2023/04/04 11:09:05;;;;;;;4.57;2.22;;;;;;;13.78;17.83;99778.53;7592071;32;303852;-78
2023/04/04 11:13:34;;;;;;;3.47;1.95;;;;;;;13.89;19.68;99771.78;7655643;32;39514;-78
2023/04/04 11:17:53;;;;;;;3.87;2.00;;;;;;;14.23;19.79;99778.19;7620826;32;40020;-78
2023/04/04 11:22:10;;;;;;;5.43;2.17;;;;;;;14.43;18.87;99766.09;7614894;32;38086;-79
2023/04/04 11:26:26;;;;;;;2.95;1.92;;;;;;;14.82;19.03;99762.19;7606064;32;37138;-79
2023/04/04 11:30:47;;;;;;;9.00;2.30;;;;;;;13.52;18.91;99765.13;7606246;32;38357;-86
2023/04/04 11:35:07;;;;;;;3.95;2.25;;;;;;;13.81;20.14;99772.44;7602096;32;39982;-78
2023/04/04 11:39:30;;;;;;;4.12;1.85;;;;;;;14.37;18.90;99751.66;7649619;32;37939;-79
2023/04/04 11:43:50;;;;;;;3.33;1.87;;;;;;;15.09;19.62;99755.13;7631631;32;37087;-78
2023/04/04 11:48:07;;;;;;;4.15;2.08;;;;;;;14.85;17.84;99753.38;7631478;32;39293;-78
2023/04/04 11:52:24;;;;;;;15.57;3.05;;;;;;;14.79;17.09;99751.81;7630010;32;39973;-78
2023/04/04 11:56:43;;;;;;;3.90;2.15;;;;;;;15.07;17.36;99747.19;7627243;32;37430;-79
2023/04/04 12:01:00;;;;;;;4.20;2.00;;;;;;;15.08;17.57;99739.78;7629340;32;37176;-79
2023/04/04 12:05:16;;;;;;;3.62;2.10;;;;;;;14.78;16.81;99733.72;7629699;32;40060;-79
2023/04/04 12:09:33;;;;;;;3.10;2.03;;;;;;;15.52;18.19;99725.47;7630809;32;41237;-79
2023/04/04 12:13:51;;;;;;;3.67;1.90;;;;;;;15.78;16.81;99733.22;7630348;32;37764;-79
2023/04/04 12:18:08;;;;;;;4.82;2.00;;;;;;;16.42;17.71;99713.03;7631308;32;37869;-80
2023/04/04 12:22:24;;;;;;;4.57;2.08;;;;;;;15.57;16.46;99716.28;7628744;32;40257;-79
2023/04/04 12:26:50;;;;;;;3.12;2.00;;;;;;;15.69;17.84;99718.50;7608646;32;39755;-79
2023/04/04 12:31:08;;;;;;;;;;;;;;;16.63;18.22;99702.34;7611562;32;37997;-79
2023/04/04 12:35:24;;;;;;;4.65;1.90;;;;;;;17.09;18.06;99692.88;7605107;32;38021;-80
2023/04/04 12:39:51;;;;;;;4.43;1.90;;;;;;;17.16;18.16;99690.50;7601747;32;39365;-81
2023/04/04 12:44:10;;;;;;;3.65;1.90;;;;;;;17.89;15.49;99686.47;7630808;32;39954;-81
2023/04/04 12:48:28;;;;;;;3.40;1.90;;;;;;;18.75;15.61;99684.75;7617428;32;37999;-80
2023/04/04 12:52:50;;;;;;;2.90;1.85;;;;;;;18.67;14.36;99688.34;7604451;32;36968;-80
2023/04/04 12:57:07;;;;;;;2.75;1.70;;;;;;;18.93;12.46;99671.72;7591602;32;40042;-81
2023/04/04 13:01:23;;;;;;;3.90;2.00;;;;;;;18.81;13.31;99671.56;7591440;32;39966;-80
2023/04/04 13:05:41;;;;;;;3.47;1.80;;;;;;;18.63;14.69;99674.41;7600331;32;37883;-80
2023/04/04 13:10:03;;;;;;;3.87;1.87;;;;;;;18.94;13.53;99670.59;7604641;32;37236;-79
2023/04/04 13:14:20;;;;;;;6.68;1.80;;;;;;;18.59;12.88;99670.66;7616375;32;40118;-80
2023/04/04 13:18:40;;;;;;;2.58;1.70;;;;;;;18.11;13.51;99655.12;7615183;32;39992;-80
2023/04/04 13:22:58;;;;;;;3.47;1.83;;;;;;;17.90;13.66;99653.06;7616373;32;38854;-80
2023/04/04 13:27:16;;;;;;;4.05;2.30;;;;;;;16.88;14.71;99651.31;7615951;32;37015;-79
2023/04/04 13:31:32;;;;;;;3.33;1.65;;;;;;;16.95;14.65;99661.88;7615453;32;39475;-81
2023/04/04 13:35:52;;;;;;;4.95;2.22;;;;;;;17.02;13.75;99656.72;7616165;32;40572;-80
2023/04/04 13:40:09;;;;;;;3.97;2.00;;;;;;;16.77;13.75;99647.19;7618186;32;37993;-80
2023/04/04 13:44:25;;;;;;;3.40;1.90;;;;;;;17.56;14.92;99638.06;7624297;32;37518;-79
2023/04/04 13:48:42;;;;;;;2.97;1.90;;;;;;;17.91;16.68;99640.88;7632552;32;39412;-80
2023/04/04 13:52:58;;;;;;;4.50;2.00;;;;;;;18.18;14.70;99644.44;7624611;32;40893;-80
2023/04/04 13:57:16;;;;;;;3.42;2.22;;;;;;;18.47;13.93;99645.69;7619732;32;37017;-78
2023/04/04 14:01:33;;;;;;;3.75;2.00;;;;;;;19.16;14.51;99638.31;7593914;32;37086;-79
2023/04/04 14:05:50;;;;;;;3.75;1.95;;;;;;;18.85;14.03;99639.41;7592714;32;39334;-77
2023/04/04 14:10:06;;;;;;;4.62;2.25;;;;;;;18.98;13.66;99638.41;7606572;32;39963;-78
2023/04/04 14:14:23;;;;;;;3.33;1.80;;;;;;;17.82;12.47;99642.81;7605973;32;38729;-79
2023/04/04 14:18:39;;;;;;;5.43;1.87;;;;;;;17.86;14.50;99634.69;7605943;32;37861;-78
2023/04/04 14:22:55;;;;;;;3.37;2.08;;;;;;;18.28;15.95;99641.34;7606651;32;40088;-78
2023/04/04 14:27:12;;;;;;;6.68;2.72;;;;;;;17.85;15.97;99644.91;7606046;32;40864;-78
2023/04/04 14:31:31;;;;;;;3.78;2.20;;;;;;;18.11;14.84;99644.94;7606434;32;38614;-78
2023/04/04 14:35:47;;;;;;;21.35;8.23;;;;;;;17.97;15.80;99645.09;7592750;32;36110;-79
2023/04/04 14:40:05;;;;;;;8.48;3.65;;;;;;;18.31;15.04;99643.44;7606565;32;39530;-80
2023/04/04 14:44:21;;;;;;;6.43;2.37;;;;;;;17.05;17.08;99659.66;7605671;32;40571;-81
2023/04/04 14:48:38;;;;;;;5.20;2.70;;;;;;;18.21;17.21;99663.09;7606183;32;37968;-80
2023/04/04 14:52:55;;;;;;;3.50;1.95;;;;;;;18.34;16.46;99659.34;7606208;32;37080;-79
2023/04/04 14:57:12;;;;;;;7.35;2.58;;;;;;;17.87;16.80;99655.63;7605717;32;40178;-80
2023/04/04 15:01:30;;;;;;;4.37;2.45;;;;;;;16.94;17.85;99674.84;7617612;32;40145;-81
2023/04/04 15:05:48;;;;;;;5.45;2.08;;;;;;;16.68;18.19;99677.44;7612196;32;37608;-79
2023/04/04 15:10:05;;;;;;;8.80;3.12;;;;;;;16.44;18.88;99673.09;7605793;32;37042;-80
2023/04/04 15:14:25;;;;;;;9.85;2.53;;;;;;;15.81;19.43;99679.53;7606013;32;40086;-80
2023/04/04 15:18:41;;;;;;;8.65;2.85;;;;;;;15.57;19.42;99691.56;7622419;32;40939;-79
2023/04/04 15:22:58;;;;;;;4.78;2.67;;;;;;;15.32;20.09;99688.22;7631842;32;38010;-79
2023/04/04 15:27:14;;;;;;;7.43;3.15;;;;;;;15.05;20.03;99690.97;7631447;32;37229;-79
2023/04/04 15:31:31;;;;;;;5.50;2.90;;;;;;;14.75;20.55;99690.44;7629411;32;40001;-80
2023/04/04 15:35:47;;;;;;;12.05;5.85;;;;;;;14.49;20.31;99700.97;7618213;32;39902;-80
2023/04/04 15:40:04;;;;;;;12.37;6.20;;;;;;;14.08;21.86;99710.69;7592082;32;38708;-80
2023/04/04 15:44:20;;;;;;;6.70;3.47;;;;;;;13.92;21.32;99701.03;7610479;32;37141;-79
2023/04/04 15:48:36;;;;;;;4.93;2.60;;;;;;;13.83;21.36;99709.13;7615606;32;39445;-79
2023/04/04 15:52:53;;;;;;;6.32;2.60;;;;;;;13.52;21.77;99715.84;7616522;32;40133;-80
2023/04/04 15:57:09;;;;;;;5.07;2.58;;;;;;;13.06;22.01;99721.00;7604578;32;38006;-80
2023/04/04 16:01:25;;;;;;;7.05;2.53;;;;;;;13.00;21.67;99731.16;7622462;32;37266;-81
2023/04/04 16:05:44;;;;;;;5.55;2.50;;;;;;;12.56;22.86;99732.13;7590970;32;39457;-81
2023/04/04 16:10:00;;;;;;;7.30;2.80;;;;;;;12.67;22.44;99739.12;7613345;32;40764;-80
2023/04/04 16:14:19;;;;;;;5.55;2.55;;;;;;;12.24;23.24;99746.31;7605016;32;37563;-80
2023/04/04 16:18:39;;;;;;;4.03;2.65;;;;;;;12.08;22.70;99753.78;7626246;32;37045;-81
2023/04/04 16:22:55;;;;;;;4.65;2.67;;;;;;;12.23;23.25;99755.59;7618958;32;39343;-81
2023/04/04 16:27:12;;;;;;;4.47;2.72;;;;;;;11.95;23.81;99766.16;7607264;32;40791;-80
2023/04/04 16:31:29;;;;;;;4.25;2.80;;;;;;;11.60;23.44;99779.66;7611181;32;37974;-80
2023/04/04 16:35:45;;;;;;;9.80;2.80;;;;;;;11.54;24.33;99783.50;7591443;32;37060;-80
2023/04/04 16:40:02;;;;;;;4.57;2.45;;;;;;;11.45;24.28;99790.63;7604514;32;39608;-79
2023/04/04 16:44:18;;;;;;;4.72;2.50;;;;;;;11.12;24.15;99802.97;7612646;32;40346;-80
2023/04/04 16:48:34;;;;;;;4.32;2.60;;;;;;;11.11;24.66;99810.37;7610051;32;37942;-80
2023/04/04 16:52:51;;;;;;;8.05;3.35;;;;;;;10.96;24.25;99810.37;7607682;32;37692;-79
2023/04/04 16:57:07;;;;;;;3.62;2.58;;;;;;;10.48;24.19;99814.16;7607718;32;39002;-79
2023/04/04 17:01:25;;;;;;;6.28;3.12;;;;;;;10.32;24.63;99839.75;7607571;32;40074;-79
2023/04/04 17:05:41;;;;;;;6.70;2.65;;;;;;;10.02;25.06;99835.84;7607442;32;37676;-79
2023/04/04 17:09:57;;;;;;;6.75;2.85;;;;;;;10.11;24.75;99845.12;7607340;32;37799;-79
2023/04/04 17:14:14;;;;;;;6.57;3.42;;;;;;;10.04;25.32;99851.91;7607332;32;39425;-78
2023/04/04 17:18:30;;;;;;;5.57;2.97;;;;;;;9.89;25.81;99864.34;7607244;32;40825;-79
2023/04/04 17:22:48;;;;;;;6.68;3.40;;;;;;;9.69;25.56;99875.97;7610360;32;37783;-79
2023/04/04 17:27:05;;;;;;;4.95;3.00;;;;;;;9.70;25.56;99872.16;7611635;32;36336;-79
2023/04/04 17:31:21;;;;;;;10.80;3.12;;;;;;;9.30;25.63;99873.56;7607251;32;39273;-79
2023/04/04 17:35:37;;;;;;;7.35;3.40;;;;;;;9.54;26.06;99887.59;7607161;32;40815;-79
2023/04/04 17:39:53;;;;;;;9.05;3.65;;;;;;;9.30;24.96;99898.03;7607017;32;38653;-79
2023/04/04 17:44:10;;;;;;;6.18;3.45;;;;;;;8.91;26.49;99906.41;7607023;32;37143;-79
2023/04/04 17:48:31;;;;;;;5.18;3.37;;;;;;;8.84;25.37;99914.75;7606980;32;39341;-79
2023/04/04 17:52:47;;;;;;;6.30;3.42;;;;;;;8.58;25.85;99923.75;7606197;32;39731;-80
2023/04/04 17:57:05;;;;;;;6.85;3.47;;;;;;;8.52;26.45;99938.34;7613588;32;37886;-79
2023/04/04 18:01:24;;;;;;;5.95;3.30;;;;;;;8.59;26.75;99936.28;7632854;32;37860;-79
2023/04/04 18:05:41;;;;;;;5.55;3.20;;;;;;;7.90;27.86;99949.25;7658091;32;40095;-79
2023/04/04 18:09:57;;;;;;;7.22;3.78;;;;;;;7.53;28.22;99966.03;7640084;32;40193;-79
2023/04/04 18:14:14;;;;;;;6.03;3.45;;;;;;;7.66;27.97;99964.09;7656782;32;38754;-79
2023/04/04 18:18:31;;;;;;;5.60;3.40;;;;;;;7.46;27.71;99981.66;7659046;32;36966;-79
2023/04/04 18:22:47;;;;;;;8.30;3.92;;;;;;;7.65;27.18;99984.16;7646097;32;39491;-79
2023/04/04 18:27:03;;;;;;;5.78;3.42;;;;;;;6.88;28.25;99990.97;7632745;32;41626;-80
2023/04/04 18:31:20;;;;;;;6.35;3.80;;;;;;;7.33;27.56;99990.16;7632486;32;37953;-80
2023/04/04 18:35:36;;;;;;;7.32;3.80;;;;;;;7.39;27.65;100001.91;7632693;32;37140;-79
2023/04/04 18:39:52;;;;;;;6.00;3.62;;;;;;;7.23;28.21;100009.78;7633182;32;39102;-80
2023/04/04 18:44:09;;;;;;;6.20;3.53;;;;;;;6.72;28.91;100020.47;7632523;32;40626;-78
2023/04/04 18:48:26;;;;;;;7.15;3.80;;;;;;;7.09;28.44;100028.22;7632314;32;38082;-79
2023/04/04 18:52:42;;;;;;;7.75;3.25;;;;;;;7.15;27.85;100032.66;7632353;32;37296;-79
2023/04/04 18:56:59;;;;;;;5.80;3.60;;;;;;;6.99;28.86;100027.22;7640688;32;39476;-78
2023/04/04 19:01:15;;;;;;;5.43;3.65;;;;;;;6.68;28.64;100040.19;7658513;32;40880;-82
2023/04/04 19:05:32;;;;;;;5.18;3.17;;;;;;;6.15;30.14;100052.84;7658107;32;37891;-82
2023/04/04 19:09:50;;;;;;;4.93;3.50;;;;;;;6.75;28.63;100063.34;7629045;32;37620;-81
2023/04/04 19:14:06;;;;;;;5.60;3.42;;;;;;;6.53;29.60;100059.62;7632082;32;40181;-82
2023/04/04 19:18:24;;;;;;;6.57;3.67;;;;;;;6.33;29.91;100065.41;7622111;32;40242;-82
2023/04/04 19:22:41;;;;;;;7.07;4.00;;;;;;;6.54;29.89;100074.84;7616467;32;38553;-82
2023/04/04 19:26:57;;;;;;;5.35;3.75;;;;;;;6.53;29.56;100075.88;7632066;32;36789;-82
2023/04/04 19:31:23;;;;;;;6.32;3.58;;;;;;;6.15;30.17;100079.91;7631879;32;39359;-80
2023/04/04 19:35:53;;;;;;;7.45;3.80;;;;;;;6.30;30.93;100093.00;7632938;32;40799;-80
2023/04/04 19:40:15;;;;;;;10.07;4.10;;;;;;;6.42;29.97;100091.09;7658032;32;37890;-81
2023/04/04 19:44:31;;;;;;;8.23;4.10;;;;;;;6.19;30.03;100089.22;7658119;32;37641;-81
2023/04/04 19:48:50;;;;;;;7.87;4.30;;;;;;;6.34;29.73;100100.38;7657971;32;39421;-81
2023/04/04 19:53:06;;;;;;;8.35;4.35;;;;;;;6.34;30.60;100100.38;7653167;32;40043;-80
2023/04/04 19:57:22;;;;;;;7.47;3.85;;;;;;;6.20;30.17;100102.50;7647894;32;38079;-80
2023/04/04 20:01:39;;;;;;;10.05;4.28;;;;;;;6.49;30.85;100107.22;7657740;32;37551;-80
2023/04/04 20:06:26;;;;;;;6.72;4.10;;;;;;;6.24;31.41;100105.56;7656283;32;40195;-80
2023/04/04 20:10:42;;;;;;;6.43;3.87;;;;;;;6.14;31.93;100124.28;7619277;32;40032;-80
2023/04/04 20:14:59;;;;;;;6.57;3.72;;;;;;;6.20;31.81;100116.03;7631195;32;37833;-80
2023/04/04 20:19:18;;;;;;;9.00;4.00;;;;;;;6.33;31.30;100106.88;7621953;32;37360;-80